createdAt,value
2022-10-07T00:00:55.000Z,77.01
2022-10-07T00:03:25.138Z,77.26
2022-10-07T00:06:02.064Z,77.53
2022-10-07T00:08:30.252Z,77.61
2022-10-07T00:10:58.008Z,77.72
2022-10-07T00:13:25.625Z,77.78
2022-10-07T00:15:53.212Z,77.96
2022-10-07T00:18:20.949Z,78.07
2022-10-07T00:20:48.804Z,78.34
2022-10-07T00:23:16.365Z,78.50
2022-10-07T00:25:43.907Z,78.48
2022-10-07T00:28:11.506Z,78.39
2022-10-07T00:30:39.251Z,78.51
2022-10-07T00:33:06.812Z,78.41
2022-10-07T00:35:36.747Z,78.54
2022-10-07T00:38:04.238Z,78.73
2022-10-07T00:40:32.317Z,78.63
2022-10-07T00:42:59.811Z,78.76
2022-10-07T00:45:27.567Z,78.77
2022-10-07T00:47:55.230Z,78.71
2022-10-07T00:50:27.460Z,78.63
2022-10-07T00:52:59.278Z,78.72
2022-10-07T00:55:29.555Z,78.70
2022-10-07T00:58:02.535Z,78.72
2022-10-07T01:00:30.583Z,78.74
2022-10-07T01:02:59.494Z,78.51
2022-10-07T01:05:27.254Z,78.34
2022-10-07T01:07:59.071Z,78.33
2022-10-07T01:10:35.286Z,78.23
2022-10-07T01:13:10.023Z,78.18
2022-10-07T01:15:42.057Z,77.97
2022-10-07T01:18:16.902Z,77.86
2022-10-07T01:20:52.460Z,77.78
2022-10-07T01:23:55.526Z,77.70
2022-10-07T01:26:44.611Z,77.76
2022-10-07T01:29:14.964Z,77.73
2022-10-07T01:31:47.297Z,77.91
2022-10-07T01:34:16.931Z,77.96
2022-10-07T01:36:51.150Z,77.76
2022-10-07T01:39:24.457Z,77.70
2022-10-07T01:41:52.954Z,77.58
2022-10-07T01:44:21.175Z,77.56
2022-10-07T01:46:48.741Z,77.56
2022-10-07T01:49:16.272Z,77.70
2022-10-07T01:51:44.391Z,77.93
2022-10-07T01:54:27.401Z,77.73
2022-10-07T01:57:10.084Z,77.90
2022-10-07T02:00:01.862Z,77.92
2022-10-07T02:02:44.616Z,77.95
2022-10-07T02:05:19.510Z,77.82
2022-10-07T02:07:59.127Z,77.96
2022-10-07T02:10:33.666Z,77.89
2022-10-07T02:13:08.418Z,77.70
2022-10-07T02:15:39.563Z,77.69
2022-10-07T02:18:13.100Z,77.77
2022-10-07T02:20:43.314Z,77.82
2022-10-07T02:23:13.976Z,77.95
2022-10-07T02:25:54.034Z,78.05
2022-10-07T02:28:24.440Z,78.10
2022-10-07T02:30:55.879Z,78.07
2022-10-07T02:33:27.108Z,77.97
2022-10-07T02:35:57.894Z,77.72
2022-10-07T02:38:26.034Z,77.74
2022-10-07T02:41:05.459Z,77.78
2022-10-07T02:43:40.115Z,77.71
2022-10-07T02:46:12.829Z,77.60
2022-10-07T02:48:45.877Z,77.47
2022-10-07T02:51:21.292Z,77.50
2022-10-07T02:53:51.502Z,77.47
2022-10-07T02:56:22.563Z,77.69
2022-10-07T02:58:51.405Z,77.68
2022-10-07T03:01:24.900Z,77.77
2022-10-07T03:03:52.537Z,77.77
2022-10-07T03:06:20.159Z,77.78
2022-10-07T03:08:47.713Z,77.74
2022-10-07T03:11:15.534Z,77.89
2022-10-07T03:13:43.954Z,77.99
2022-10-07T03:16:11.539Z,78.06
2022-10-07T03:18:39.778Z,77.99
2022-10-07T03:21:08.280Z,77.96
2022-10-07T03:23:35.816Z,78.23
2022-10-07T03:26:03.937Z,78.57
2022-10-07T03:28:35.431Z,78.74
2022-10-07T03:31:07.334Z,78.93
2022-10-07T03:33:36.614Z,79.17
2022-10-07T03:36:05.440Z,79.33
2022-10-07T03:38:33.364Z,79.46
2022-10-07T03:41:03.739Z,79.72
2022-10-07T03:43:31.341Z,79.87
2022-10-07T03:46:00.068Z,79.91
2022-10-07T03:48:27.638Z,79.91
2022-10-07T03:50:58.088Z,80.02
2022-10-07T03:53:27.943Z,80.00
2022-10-07T03:55:55.837Z,80.03
2022-10-07T03:58:23.541Z,79.93
2022-10-07T04:00:51.113Z,79.95
2022-10-07T04:03:18.810Z,79.95
2022-10-07T04:05:57.521Z,79.86
2022-10-07T04:08:27.405Z,79.57
2022-10-07T04:10:56.518Z,79.39
2022-10-07T04:13:24.395Z,79.31
2022-10-07T04:15:52.313Z,79.34
2022-10-07T04:18:19.961Z,79.13
2022-10-07T04:20:47.473Z,78.95
2022-10-07T04:23:15.773Z,79.12
2022-10-07T04:25:44.339Z,79.02
2022-10-07T04:28:16.610Z,79.07
2022-10-07T04:30:44.563Z,78.99
2022-10-07T04:33:12.836Z,78.89
2022-10-07T04:35:40.726Z,79.00
2022-10-07T04:38:12.769Z,79.01
2022-10-07T04:40:42.374Z,79.06
2022-10-07T04:43:18.729Z,79.04
2022-10-07T04:45:47.848Z,79.22
2022-10-07T04:48:17.568Z,79.20
2022-10-07T04:50:45.517Z,79.20
2022-10-07T04:53:15.025Z,79.11
2022-10-07T04:55:45.761Z,79.47
2022-10-07T04:58:14.557Z,79.48
2022-10-07T05:00:43.937Z,79.41
2022-10-07T05:03:12.665Z,79.82
2022-10-07T05:05:45.284Z,79.79
2022-10-07T05:08:13.913Z,80.09
2022-10-07T05:10:42.354Z,80.25
2022-10-07T05:13:12.435Z,80.30
2022-10-07T05:15:48.442Z,80.37
2022-10-07T05:18:18.053Z,80.71
2022-10-07T05:20:46.938Z,80.68
2022-10-07T05:23:15.669Z,80.61
2022-10-07T05:25:43.829Z,80.50
2022-10-07T05:28:12.542Z,80.58
2022-10-07T05:30:41.277Z,80.62
2022-10-07T05:33:10.148Z,80.73
2022-10-07T05:35:37.670Z,80.68
2022-10-07T05:38:05.164Z,80.75
2022-10-07T05:40:32.657Z,80.63
2022-10-07T05:43:00.292Z,80.82
2022-10-07T05:45:31.249Z,80.72
2022-10-07T05:47:58.774Z,80.77
2022-10-07T05:50:26.301Z,80.98
2022-10-07T05:52:53.848Z,80.95
2022-10-07T05:55:21.391Z,81.24
2022-10-07T05:57:51.539Z,81.32
2022-10-07T06:00:22.802Z,81.46
2022-10-07T06:02:51.891Z,81.57
2022-10-07T06:05:24.743Z,81.77
2022-10-07T06:07:56.966Z,81.93
2022-10-07T06:10:42.931Z,82.10
2022-10-07T06:13:11.815Z,82.23
2022-10-07T06:15:39.552Z,82.35
2022-10-07T06:18:08.222Z,82.44
2022-10-07T06:20:35.754Z,82.49
2022-10-07T06:23:04.479Z,82.52
2022-10-07T06:25:32.103Z,82.59
2022-10-07T06:28:00.559Z,82.80
2022-10-07T06:30:28.714Z,82.80
2022-10-07T06:32:56.496Z,82.89
2022-10-07T06:35:24.106Z,82.95
2022-10-07T06:37:51.708Z,83.19
2022-10-07T06:40:20.060Z,83.15
2022-10-07T06:42:55.164Z,83.34
2022-10-07T06:45:22.908Z,83.29
2022-10-07T06:47:51.384Z,83.26
2022-10-07T06:50:19.423Z,83.41
2022-10-07T06:52:49.370Z,83.51
2022-10-07T06:55:17.248Z,83.73
2022-10-07T06:57:46.194Z,83.62
2022-10-07T07:00:14.955Z,83.57
2022-10-07T07:02:43.829Z,83.55
2022-10-07T07:05:15.241Z,83.44
2022-10-07T07:07:43.040Z,83.58
2022-10-07T07:10:11.105Z,83.59
2022-10-07T07:12:39.426Z,83.58
2022-10-07T07:15:09.209Z,83.76
2022-10-07T07:17:36.710Z,83.78
2022-10-07T07:20:04.730Z,83.63
2022-10-07T07:22:32.238Z,83.73
2022-10-07T07:24:59.755Z,83.46
2022-10-07T07:27:27.506Z,83.65
2022-10-07T07:29:55.420Z,83.76
2022-10-07T07:32:23.132Z,83.67
2022-10-07T07:34:50.681Z,83.86
2022-10-07T07:37:19.893Z,83.63
2022-10-07T07:39:51.150Z,83.85
2022-10-07T07:42:18.694Z,83.77
2022-10-07T07:44:48.103Z,83.82
2022-10-07T07:47:17.100Z,83.74
2022-10-07T07:49:46.348Z,83.56
2022-10-07T07:52:13.884Z,83.50
2022-10-07T07:54:42.203Z,83.64
2022-10-07T07:57:10.462Z,83.40
2022-10-07T07:59:40.197Z,83.25
2022-10-07T08:02:07.890Z,83.22
2022-10-07T08:04:38.116Z,83.06
2022-10-07T08:07:05.729Z,82.84
2022-10-07T08:09:36.165Z,82.90
2022-10-07T08:12:03.949Z,82.87
2022-10-07T08:14:31.596Z,82.80
2022-10-07T08:16:59.611Z,82.47
2022-10-07T08:19:29.686Z,82.60
2022-10-07T08:21:59.118Z,82.35
2022-10-07T08:24:27.240Z,82.26
2022-10-07T08:26:54.805Z,82.16
2022-10-07T08:29:22.449Z,82.06
2022-10-07T08:31:50.365Z,81.87
2022-10-07T08:34:18.487Z,81.49
2022-10-07T08:36:50.253Z,81.42
2022-10-07T08:39:18.194Z,81.27
2022-10-07T08:41:58.933Z,81.08
2022-10-07T08:44:33.345Z,80.85
2022-10-07T08:47:11.859Z,80.62
2022-10-07T08:49:53.305Z,80.46
2022-10-07T08:52:32.530Z,80.38
2022-10-07T08:55:01.128Z,80.32
2022-10-07T08:57:51.658Z,80.30
2022-10-07T09:00:24.209Z,80.19
2022-10-07T09:03:06.773Z,80.09
2022-10-07T09:05:38.343Z,80.02
2022-10-07T09:08:14.164Z,79.89
2022-10-07T09:10:45.846Z,79.77
2022-10-07T09:13:28.295Z,79.62
2022-10-07T09:16:03.653Z,79.34
2022-10-07T09:18:43.333Z,79.23
2022-10-07T09:21:16.797Z,78.99
2022-10-07T09:24:04.902Z,78.79
2022-10-07T09:26:33.003Z,78.66
2022-10-07T09:29:03.931Z,78.34
2022-10-07T09:31:32.105Z,77.87
2022-10-07T09:33:59.916Z,77.79
2022-10-07T09:36:29.256Z,77.53
2022-10-07T09:39:14.943Z,77.11
2022-10-07T09:41:43.353Z,76.85
2022-10-07T09:44:25.270Z,76.60
2022-10-07T09:46:56.640Z,76.56
2022-10-07T09:49:36.791Z,76.25
2022-10-07T09:52:07.051Z,76.09
2022-10-07T09:54:36.023Z,75.93
2022-10-07T09:57:05.452Z,75.83
2022-10-07T09:59:37.531Z,75.46
2022-10-07T10:02:21.701Z,75.23
2022-10-07T10:04:52.941Z,75.04
2022-10-07T10:07:24.452Z,74.87
2022-10-07T10:09:53.856Z,74.96
2022-10-07T10:12:32.898Z,74.89
2022-10-07T10:15:02.331Z,74.79
2022-10-07T10:17:33.937Z,74.62
2022-10-07T10:20:25.738Z,74.33
2022-10-07T10:22:56.825Z,74.25
2022-10-07T10:25:54.131Z,73.77
2022-10-07T10:28:35.511Z,73.43
2022-10-07T10:31:09.691Z,72.89
2022-10-07T10:33:44.062Z,72.58
2022-10-07T10:36:18.626Z,72.28
2022-10-07T10:38:50.938Z,72.09
2022-10-07T10:41:29.893Z,72.00
2022-10-07T10:44:19.799Z,71.68
2022-10-07T10:46:57.937Z,71.23
2022-10-07T10:49:32.581Z,70.95
2022-10-07T10:52:33.649Z,70.71
2022-10-07T10:55:21.047Z,70.37
2022-10-07T10:57:56.869Z,70.00
2022-10-07T11:00:35.371Z,69.85
2022-10-07T11:03:26.361Z,69.55
2022-10-07T11:05:55.690Z,69.21
2022-10-07T11:08:34.492Z,69.13
2022-10-07T11:11:08.721Z,68.96
2022-10-07T11:13:46.269Z,68.99
2022-10-07T11:16:19.100Z,68.84
2022-10-07T11:18:54.176Z,68.86
2022-10-07T11:21:26.708Z,68.79
2022-10-07T11:24:01.384Z,68.81
2022-10-07T11:26:34.997Z,68.80
2022-10-07T11:29:14.942Z,68.82
2022-10-07T11:31:50.007Z,68.71
2022-10-07T11:34:22.515Z,68.66
2022-10-07T11:36:59.216Z,68.53
2022-10-07T11:39:28.248Z,68.49
2022-10-07T11:42:12.831Z,68.28
2022-10-07T11:44:48.016Z,68.19
2022-10-07T11:47:21.096Z,67.79
2022-10-07T11:49:59.048Z,67.78
2022-10-07T11:52:30.240Z,67.68
2022-10-07T11:55:04.456Z,67.65
2022-10-07T11:57:36.254Z,67.69
2022-10-07T12:00:09.011Z,67.45
2022-10-07T12:02:40.868Z,66.93
2022-10-07T12:05:46.819Z,66.68
2022-10-07T12:08:32.598Z,66.53
2022-10-07T12:11:44.873Z,66.39
2022-10-07T12:14:42.984Z,66.14
2022-10-07T12:17:30.913Z,65.71
2022-10-07T12:20:44.894Z,65.39
2022-10-07T12:23:44.686Z,65.12
2022-10-07T12:26:47.899Z,64.92
2022-10-07T12:29:44.941Z,64.63
2022-10-07T12:32:46.683Z,64.45
2022-10-07T12:35:51.461Z,64.14
2022-10-07T12:38:28.577Z,64.17
2022-10-07T12:41:24.981Z,63.99
2022-10-07T12:44:06.827Z,63.87
2022-10-07T12:46:50.518Z,63.43
2022-10-07T12:49:25.365Z,63.49
2022-10-07T12:51:57.016Z,63.27
2022-10-07T12:54:31.644Z,62.95
2022-10-07T12:57:00.045Z,62.77
2022-10-07T12:59:55.764Z,61.81
2022-10-07T13:03:05.921Z,61.85
2022-10-07T13:06:23.667Z,61.54
2022-10-07T13:09:29.211Z,61.72
2022-10-07T13:12:27.796Z,61.08
2022-10-07T13:15:11.714Z,61.02
2022-10-07T13:17:46.795Z,60.93
2022-10-07T13:20:32.862Z,61.07
2022-10-07T13:23:11.460Z,60.48
2022-10-07T13:25:44.825Z,60.39
2022-10-07T13:28:15.747Z,60.08
2022-10-07T13:30:45.738Z,59.96
2022-10-07T13:33:29.787Z,59.74
2022-10-07T13:36:15.200Z,59.92
2022-10-07T13:38:43.108Z,59.45
2022-10-07T13:41:20.834Z,59.22
2022-10-07T13:43:53.475Z,59.28
2022-10-07T13:46:23.548Z,58.90
2022-10-07T13:48:55.565Z,58.67
2022-10-07T13:51:31.480Z,58.67
2022-10-07T13:54:01.355Z,58.67
2022-10-07T13:56:33.875Z,58.50
2022-10-07T13:59:02.703Z,58.46
2022-10-07T14:01:35.781Z,58.80
2022-10-07T14:04:16.798Z,58.62
2022-10-07T14:06:57.669Z,58.38
2022-10-07T14:09:42.136Z,58.22
2022-10-07T14:12:14.328Z,57.87
2022-10-07T14:14:47.784Z,57.69
2022-10-07T14:17:27.733Z,57.52
2022-10-07T14:20:00.880Z,57.48
2022-10-07T14:22:33.400Z,57.23
2022-10-07T14:25:03.397Z,57.35
2022-10-07T14:27:52.488Z,56.93
2022-10-07T14:30:56.155Z,57.11
2022-10-07T14:33:47.481Z,57.46
2022-10-07T14:36:17.589Z,57.81
2022-10-07T14:38:46.803Z,57.79
2022-10-07T14:41:16.391Z,58.04
2022-10-07T14:43:46.886Z,58.15
2022-10-07T14:46:18.034Z,58.25
2022-10-07T14:48:46.446Z,58.38
2022-10-07T14:51:16.363Z,58.55
2022-10-07T14:53:48.529Z,58.61
2022-10-07T14:56:26.975Z,58.78
2022-10-07T14:58:55.699Z,58.88
2022-10-07T15:01:23.587Z,59.11
2022-10-07T15:03:54.126Z,59.13
2022-10-07T15:06:22.876Z,59.46
2022-10-07T15:08:50.426Z,59.56
2022-10-07T15:11:20.042Z,59.80
2022-10-07T15:13:52.207Z,60.02
2022-10-07T15:16:23.412Z,60.15
2022-10-07T15:18:52.758Z,60.21
2022-10-07T15:21:21.979Z,60.40
2022-10-07T15:23:54.069Z,60.59
2022-10-07T15:26:23.626Z,60.65
2022-10-07T15:28:53.949Z,60.81
2022-10-07T15:31:26.674Z,61.05
2022-10-07T15:33:57.158Z,61.31
2022-10-07T15:36:29.850Z,61.79
2022-10-07T15:38:58.912Z,61.99
2022-10-07T15:41:35.087Z,62.20
2022-10-07T15:44:07.831Z,62.46
2022-10-07T15:46:35.603Z,62.71
2022-10-07T15:49:04.841Z,63.09
2022-10-07T15:51:34.945Z,63.38
2022-10-07T15:54:03.554Z,63.67
2022-10-07T15:56:31.598Z,63.97
2022-10-07T15:59:03.507Z,64.12
2022-10-07T16:01:32.352Z,64.35
2022-10-07T16:04:01.571Z,64.53
2022-10-07T16:06:31.756Z,64.68
2022-10-07T16:09:00.167Z,64.85
2022-10-07T16:11:28.868Z,64.96
2022-10-07T16:13:58.553Z,65.24
2022-10-07T16:16:27.539Z,65.37
2022-10-07T16:18:57.884Z,65.42
2022-10-07T16:21:28.489Z,65.39
2022-10-07T16:23:57.724Z,65.64
2022-10-07T16:26:29.432Z,65.62
2022-10-07T16:29:17.486Z,65.92
2022-10-07T16:31:47.036Z,66.36
2022-10-07T16:34:16.717Z,66.81
2022-10-07T16:36:47.550Z,67.04
2022-10-07T16:39:18.019Z,67.29
2022-10-07T16:41:47.181Z,67.41
2022-10-07T16:44:15.998Z,67.54
2022-10-07T16:46:43.700Z,67.74
2022-10-07T16:49:14.154Z,68.19
2022-10-07T16:51:41.954Z,68.35
2022-10-07T16:54:13.162Z,68.47
2022-10-07T16:56:45.502Z,68.85
2022-10-07T16:59:18.500Z,69.10
2022-10-07T17:01:50.352Z,69.25
2022-10-07T17:04:18.343Z,69.34
2022-10-07T17:06:46.177Z,69.46
2022-10-07T17:09:15.080Z,69.55
2022-10-07T17:11:42.633Z,69.70
2022-10-07T17:14:12.125Z,70.00
2022-10-07T17:16:42.306Z,70.24
2022-10-07T17:19:12.986Z,70.52
2022-10-07T17:21:41.607Z,70.85
2022-10-07T17:24:09.870Z,70.92
2022-10-07T17:26:37.937Z,71.01
2022-10-07T17:29:11.376Z,71.32
2022-10-07T17:31:41.781Z,71.45
2022-10-07T17:34:11.062Z,71.68
2022-10-07T17:36:39.731Z,71.70
2022-10-07T17:39:07.820Z,72.05
2022-10-07T17:41:37.459Z,72.24
2022-10-07T17:44:08.568Z,72.28
2022-10-07T17:46:38.534Z,72.55
2022-10-07T17:49:08.316Z,72.60
2022-10-07T17:51:37.854Z,72.80
2022-10-07T17:54:06.459Z,72.86
2022-10-07T17:56:34.181Z,73.07
2022-10-07T17:59:02.519Z,73.20
2022-10-07T18:01:33.217Z,73.39
2022-10-07T18:04:01.976Z,73.37
2022-10-07T18:06:31.833Z,73.60
2022-10-07T18:09:01.546Z,73.74
2022-10-07T18:11:44.173Z,73.86
2022-10-07T18:14:30.079Z,73.89
2022-10-07T18:16:57.661Z,74.02
2022-10-07T18:19:26.545Z,74.15
2022-10-07T18:21:56.033Z,74.19
2022-10-07T18:24:26.850Z,74.41
2022-10-07T18:26:54.992Z,74.49
2022-10-07T18:29:22.895Z,74.56
2022-10-07T18:31:50.436Z,74.59
2022-10-07T18:34:18.055Z,74.49
2022-10-07T18:36:50.636Z,74.31
2022-10-07T18:39:21.742Z,74.44
2022-10-07T18:41:49.597Z,74.82
2022-10-07T18:44:17.162Z,74.99
2022-10-07T18:46:45.010Z,75.13
2022-10-07T18:49:13.494Z,75.28
2022-10-07T18:51:43.959Z,75.63
2022-10-07T18:54:11.576Z,75.86
2022-10-07T18:56:41.375Z,75.89
2022-10-07T18:59:12.441Z,76.06
2022-10-07T19:01:40.493Z,76.06
2022-10-07T19:04:09.535Z,76.16
2022-10-07T19:06:39.767Z,76.23
2022-10-07T19:09:10.957Z,76.45
2022-10-07T19:11:38.488Z,76.51
2022-10-07T19:14:06.108Z,76.62
2022-10-07T19:16:35.568Z,76.73
2022-10-07T19:19:05.549Z,76.70
2022-10-07T19:21:34.521Z,76.88
2022-10-07T19:24:03.699Z,77.02
2022-10-07T19:26:34.300Z,77.13
2022-10-07T19:29:03.621Z,77.08
2022-10-07T19:31:34.477Z,77.24
2022-10-07T19:34:04.706Z,77.37
2022-10-07T19:36:34.389Z,77.48
2022-10-07T19:39:05.768Z,77.60
2022-10-07T19:41:35.108Z,77.81
2022-10-07T19:44:04.784Z,77.81
2022-10-07T19:46:33.209Z,77.77
2022-10-07T19:49:01.936Z,77.98
2022-10-07T19:51:32.254Z,78.03
2022-10-07T19:54:01.689Z,78.11
2022-10-07T19:56:31.284Z,78.18
2022-10-07T19:59:00.789Z,78.21
2022-10-07T20:01:31.614Z,78.31
2022-10-07T20:04:03.755Z,78.28
2022-10-07T20:06:32.234Z,78.36
2022-10-07T20:09:00.057Z,78.42
2022-10-07T20:11:27.667Z,78.48
2022-10-07T20:13:55.400Z,78.42
2022-10-07T20:16:24.900Z,78.55
2022-10-07T20:19:00.563Z,78.53
2022-10-07T20:21:29.776Z,78.51
2022-10-07T20:23:57.826Z,78.36
2022-10-07T20:26:27.556Z,78.40
2022-10-07T20:28:57.763Z,78.42
2022-10-07T20:31:29.369Z,78.38
2022-10-07T20:33:59.145Z,78.38
2022-10-07T20:36:29.251Z,78.30
2022-10-07T20:39:18.998Z,78.10
2022-10-07T20:42:05.765Z,78.23
2022-10-07T20:44:33.714Z,78.15
2022-10-07T20:47:02.092Z,78.04
2022-10-07T20:49:30.427Z,78.03
2022-10-07T20:52:00.489Z,77.92
2022-10-07T20:54:29.343Z,77.95
2022-10-07T20:56:58.567Z,77.87
2022-10-07T20:59:27.206Z,77.92
2022-10-07T21:01:55.289Z,77.79
2022-10-07T21:04:27.488Z,77.73
2022-10-07T21:06:56.426Z,77.49
2022-10-07T21:09:24.634Z,77.54
2022-10-07T21:11:52.838Z,77.47
2022-10-07T21:14:21.897Z,77.34
2022-10-07T21:16:51.459Z,77.31
2022-10-07T21:19:19.435Z,77.22
2022-10-07T21:21:46.960Z,77.12
2022-10-07T21:24:14.772Z,76.99
2022-10-07T21:26:43.189Z,76.90
2022-10-07T21:29:11.817Z,76.82
2022-10-07T21:31:40.442Z,76.82
2022-10-07T21:34:09.789Z,76.56
2022-10-07T21:36:39.346Z,76.56
2022-10-07T21:39:07.217Z,76.37
2022-10-07T21:41:37.899Z,76.33
2022-10-07T21:44:07.247Z,76.37
2022-10-07T21:46:36.075Z,76.34
2022-10-07T21:49:05.425Z,76.25
2022-10-07T21:51:34.021Z,76.13
2022-10-07T21:54:02.615Z,76.20
2022-10-07T21:56:31.855Z,76.00
2022-10-07T21:59:00.915Z,75.94
2022-10-07T22:01:28.870Z,76.00
2022-10-07T22:03:57.751Z,76.09
2022-10-07T22:06:41.280Z,76.01
2022-10-07T22:09:09.218Z,76.02
2022-10-07T22:11:36.767Z,76.04
2022-10-07T22:14:07.584Z,75.93
2022-10-07T22:16:37.733Z,76.12
2022-10-07T22:19:05.877Z,75.99
2022-10-07T22:21:38.517Z,76.08
2022-10-07T22:24:08.129Z,76.11
2022-10-07T22:26:38.849Z,76.11
2022-10-07T22:29:07.323Z,76.09
2022-10-07T22:31:34.997Z,76.03
2022-10-07T22:34:02.961Z,76.21
2022-10-07T22:36:30.545Z,76.13
2022-10-07T22:38:58.737Z,76.31
2022-10-07T22:41:27.092Z,76.24
2022-10-07T22:43:54.980Z,76.31
2022-10-07T22:46:25.751Z,76.24
2022-10-07T22:48:55.588Z,76.28
2022-10-07T22:51:27.238Z,76.38
2022-10-07T22:53:55.862Z,76.44
2022-10-07T22:56:24.844Z,76.43
2022-10-07T22:58:57.153Z,76.47
2022-10-07T23:01:27.915Z,76.62
2022-10-07T23:03:56.273Z,76.47
2022-10-07T23:06:23.854Z,76.65
2022-10-07T23:08:51.446Z,76.62
2022-10-07T23:11:21.647Z,76.64
2022-10-07T23:13:50.338Z,76.68
2022-10-07T23:16:19.609Z,76.66
2022-10-07T23:18:48.891Z,76.68
2022-10-07T23:21:19.377Z,76.75
2022-10-07T23:23:48.341Z,76.79
2022-10-07T23:26:18.452Z,76.77
2022-10-07T23:28:47.850Z,76.87
2022-10-07T23:31:17.584Z,76.83
2022-10-07T23:33:46.766Z,76.92
2022-10-07T23:36:16.297Z,76.89
2022-10-07T23:38:44.199Z,76.78
2022-10-07T23:41:14.042Z,76.81
2022-10-07T23:43:42.073Z,76.79
2022-10-07T23:46:12.705Z,76.90
2022-10-07T23:48:40.927Z,76.95
2022-10-07T23:51:10.663Z,77.02
2022-10-07T23:53:38.303Z,77.20
2022-10-07T23:56:06.681Z,77.06
2022-10-07T23:58:35.066Z,77.17
